METAR Data
IDs: Format: Raw Decoded Include TAF

Data at: 0124 UTC 01 Mar 2021

KCWF 010055Z 18007KT 5SM BR OVC007 22/20 A2993
KCWF 282350Z 19008KT 5SM BR OVC009 22/20 A2992
KCWF 282250Z 21012KT 10SM OVC011 23/21 A2992
KCWF 282150Z 19018G21KT 10SM OVC015 24/21 A2992
KCWF 282050Z 18022G25KT 10SM SCT017 BKN023 26/21 A2993
KCWF 281948Z 19020G28KT 10SM BKN019 26/21 A2993
KCWF 281845Z 19019G23KT 10SM OVC015 25/21 A2996
KCWF 281750Z 19017G21KT 10SM OVC011 24/21 A2999
KCWF 281648Z 19011KT 7SM BR OVC007 22/20 A3001
KCWF 281545Z 19013KT 7SM BR OVC005 22/20 A3000
KCWF 281451Z 19016KT 7SM BR OVC005 22/21 A2999
KCWF 281348Z 17012G20KT 7SM BR OVC005 22/20 A2996
KCWF 281250Z 17013KT 5SM BR OVC005 21/20 A2995
KCWF 281200Z 18011KT 10SM OVC005 21/19 A2995
KCWF 281135Z AUTO 18013G18KT 10SM OVC005 21/20 A2995 RMK AO2 T02080196
KCWF 281115Z AUTO 18011KT 10SM OVC005 21/20 A2995 RMK AO2 T02080197
KCWF 281055Z AUTO 18011KT 10SM OVC005 21/20 A2995 RMK AO2 T02080197
KCWF 281035Z AUTO 18012KT 7SM OVC005 21/20 A2994 RMK AO2 T02080198
KCWF 281015Z AUTO 18012KT 7SM OVC005 21/20 A2994 RMK AO2 T02070197
KCWF 280955Z AUTO 18015KT 10SM OVC005 21/20 A2994 RMK AO2 T02060196
KCWF 280935Z AUTO 17011KT 10SM OVC005 20/19 A2994 RMK AO2 T02050195
KCWF 280915Z AUTO 18013KT 10SM OVC005 20/19 A2994 RMK AO2 T02050194
KCWF 280855Z AUTO 18010KT 10SM OVC007 21/19 A2995 RMK AO2 T02050195
KCWF 280835Z AUTO 18011KT 10SM OVC007 21/19 A2995 RMK AO2 T02060194
KCWF 280815Z AUTO 18010KT 10SM OVC005 21/20 A2996 RMK AO2 T02070195
KCWF 280755Z AUTO 18015KT 10SM OVC005 21/20 A2997 RMK AO2 T02080196
KCWF 280735Z AUTO 18010KT 10SM OVC005 21/20 A2997 RMK AO2 T02110199
KCWF 280715Z AUTO 19013KT 10SM OVC005 21/20 A2998 RMK AO2 T02120200
KCWF 280655Z AUTO 18013G21KT 10SM OVC005 21/20 A2997 RMK AO2 LTG DSNT N T02140202
KCWF 280635Z AUTO 18015G19KT 10SM OVC005 21/20 A2998 RMK AO2 LTG DSNT N T02150202
KCWF 280615Z AUTO 18012KT 10SM OVC005 21/20 A2998 RMK AO2 T02150202
KCWF 280555Z AUTO 18016KT 10SM OVC007 21/20 A2998 RMK AO2 T02150201 10226 20212
KCWF 280535Z AUTO 17015KT 10SM OVC007 21/20 A2997 RMK AO2 T02130199
KCWF 280515Z AUTO 18016KT 10SM OVC007 21/20 A2998 RMK AO2 T02130199
KCWF 280455Z AUTO 17015G21KT 10SM OVC007 21/20 A2998 RMK AO2 T02120198
KCWF 280435Z AUTO 17018KT 10SM OVC007 21/20 A2997 RMK AO2 T02120198
KCWF 280415Z AUTO 17016KT 10SM OVC007 21/20 A2998 RMK AO2 T02140199
KCWF 280350Z 17014G19KT 10SM OVC007 22/20 A2998 RMK LAST
KCWF 280250Z 17015KT 10SM OVC007 22/20 A2996
KCWF 280150Z 17014KT 10SM OVC007 22/20 A2995
KCWF 280055Z 17014KT 10SM OVC009 22/20 A2995
KCWF 272350Z 17017G21KT 10SM OVC011 23/21 A2995
KCWF 272255Z 17016G23KT 10SM OVC011 23/21 A2995
KCWF 272155Z 18015KT 10SM OVC017 24/21 A2996
KCWF 272050Z 18019G24KT 10SM BKN019 OVC024 25/21 A2995
KCWF 271948Z 16021G27KT 10SM BKN023 26/20 A2996
KCWF 271847Z 17017G22KT 10SM BKN020 24/19 A2998
KCWF 271749Z 16017KT 10SM BKN021 24/19 A3001
KCWF 271652Z 16015G19KT 10SM BKN022 24/19 A3001
KCWF 271552Z 15012KT 10SM SCT030 23/19 A3002
KCWF 271446Z 15008KT 5SM BR OVC004 20/19 A3003
KCWF 271350Z 15004KT 4SM BR OVC004 19/18 A3001